sensor_id;sensor_type;location;lat;lon;timestamp;P1;durP1;ratioP1;P2;durP2;ratioP2
27612;SDS011;15036;48.094;-1.690;2022-10-22T00:01:54;21.13;;;4.43;;
27612;SDS011;15036;48.094;-1.690;2022-10-22T00:04:19;19.00;;;3.63;;
27612;SDS011;15036;48.094;-1.690;2022-10-22T00:06:45;17.77;;;4.10;;
27612;SDS011;15036;48.094;-1.690;2022-10-22T00:09:11;19.45;;;3.85;;
27612;SDS011;15036;48.094;-1.690;2022-10-22T00:11:37;19.60;;;4.03;;
27612;SDS011;15036;48.094;-1.690;2022-10-22T00:14:02;16.77;;;3.70;;
27612;SDS011;15036;48.094;-1.690;2022-10-22T00:16:28;20.02;;;3.78;;
27612;SDS011;15036;48.094;-1.690;2022-10-22T00:18:53;20.00;;;3.75;;
27612;SDS011;15036;48.094;-1.690;2022-10-22T00:21:19;19.38;;;3.58;;
27612;SDS011;15036;48.094;-1.690;2022-10-22T00:23:44;24.35;;;4.35;;
27612;SDS011;15036;48.094;-1.690;2022-10-22T00:26:09;24.08;;;3.88;;
27612;SDS011;15036;48.094;-1.690;2022-10-22T00:28:35;20.33;;;3.88;;
27612;SDS011;15036;48.094;-1.690;2022-10-22T00:31:01;19.20;;;3.72;;
27612;SDS011;15036;48.094;-1.690;2022-10-22T00:33:27;21.80;;;4.18;;
27612;SDS011;15036;48.094;-1.690;2022-10-22T00:35:53;26.15;;;4.10;;
27612;SDS011;15036;48.094;-1.690;2022-10-22T00:38:18;22.17;;;4.07;;
27612;SDS011;15036;48.094;-1.690;2022-10-22T00:40:44;16.00;;;3.63;;
27612;SDS011;15036;48.094;-1.690;2022-10-22T00:43:10;16.17;;;3.35;;
27612;SDS011;15036;48.094;-1.690;2022-10-22T00:45:37;22.30;;;4.20;;
27612;SDS011;15036;48.094;-1.690;2022-10-22T00:48:09;19.13;;;3.85;;
27612;SDS011;15036;48.094;-1.690;2022-10-22T00:50:39;20.50;;;3.70;;
27612;SDS011;15036;48.094;-1.690;2022-10-22T00:53:07;22.35;;;4.28;;
27612;SDS011;15036;48.094;-1.690;2022-10-22T00:55:36;19.38;;;3.40;;
27612;SDS011;15036;48.094;-1.690;2022-10-22T00:58:03;21.52;;;3.95;;
27612;SDS011;15036;48.094;-1.690;2022-10-22T01:00:28;23.48;;;4.22;;
27612;SDS011;15036;48.094;-1.690;2022-10-22T01:02:53;19.60;;;3.90;;
27612;SDS011;15036;48.094;-1.690;2022-10-22T01:05:19;22.50;;;4.43;;
27612;SDS011;15036;48.094;-1.690;2022-10-22T01:07:46;17.95;;;3.80;;
27612;SDS011;15036;48.094;-1.690;2022-10-22T01:13:04;22.80;;;4.57;;
27612;SDS011;15036;48.094;-1.690;2022-10-22T01:18:01;21.13;;;4.45;;
27612;SDS011;15036;48.094;-1.690;2022-10-22T01:29:21;29.92;;;5.00;;
27612;SDS011;15036;48.094;-1.690;2022-10-22T01:32:01;26.98;;;5.03;;
27612;SDS011;15036;48.094;-1.690;2022-10-22T01:34:31;23.37;;;4.57;;
27612;SDS011;15036;48.094;-1.690;2022-10-22T01:36:58;26.08;;;4.80;;
27612;SDS011;15036;48.094;-1.690;2022-10-22T01:39:24;22.85;;;4.47;;
27612;SDS011;15036;48.094;-1.690;2022-10-22T01:41:55;24.60;;;4.35;;
27612;SDS011;15036;48.094;-1.690;2022-10-22T01:44:31;22.00;;;4.40;;
27612;SDS011;15036;48.094;-1.690;2022-10-22T02:03:21;24.67;;;4.32;;
27612;SDS011;15036;48.094;-1.690;2022-10-22T02:05:58;23.88;;;4.47;;
27612;SDS011;15036;48.094;-1.690;2022-10-22T02:08:29;21.08;;;4.63;;
27612;SDS011;15036;48.094;-1.690;2022-10-22T02:10:57;30.30;;;4.70;;
27612;SDS011;15036;48.094;-1.690;2022-10-22T02:13:28;29.27;;;5.38;;
27612;SDS011;15036;48.094;-1.690;2022-10-22T02:16:00;23.05;;;4.75;;
27612;SDS011;15036;48.094;-1.690;2022-10-22T02:18:28;26.30;;;4.68;;
27612;SDS011;15036;48.094;-1.690;2022-10-22T02:20:56;19.42;;;4.75;;
27612;SDS011;15036;48.094;-1.690;2022-10-22T02:23:24;27.20;;;5.53;;
27612;SDS011;15036;48.094;-1.690;2022-10-22T02:25:52;22.73;;;4.28;;
27612;SDS011;15036;48.094;-1.690;2022-10-22T02:28:23;28.13;;;5.45;;
27612;SDS011;15036;48.094;-1.690;2022-10-22T02:30:59;20.23;;;4.93;;
27612;SDS011;15036;48.094;-1.690;2022-10-22T02:33:36;26.25;;;4.50;;
27612;SDS011;15036;48.094;-1.690;2022-10-22T02:36:06;27.38;;;5.15;;
27612;SDS011;15036;48.094;-1.690;2022-10-22T02:38:33;24.08;;;5.15;;
27612;SDS011;15036;48.094;-1.690;2022-10-22T02:40:59;26.38;;;5.40;;
27612;SDS011;15036;48.094;-1.690;2022-10-22T02:43:25;25.67;;;5.32;;
27612;SDS011;15036;48.094;-1.690;2022-10-22T02:45:52;21.20;;;4.97;;
27612;SDS011;15036;48.094;-1.690;2022-10-22T02:48:18;27.23;;;4.72;;
27612;SDS011;15036;48.094;-1.690;2022-10-22T02:50:43;25.92;;;5.35;;
27612;SDS011;15036;48.094;-1.690;2022-10-22T02:53:09;26.58;;;5.25;;
27612;SDS011;15036;48.094;-1.690;2022-10-22T02:55:34;25.20;;;4.97;;
27612;SDS011;15036;48.094;-1.690;2022-10-22T02:58:00;22.05;;;5.13;;
27612;SDS011;15036;48.094;-1.690;2022-10-22T03:00:25;29.30;;;5.22;;
27612;SDS011;15036;48.094;-1.690;2022-10-22T03:02:50;20.42;;;4.10;;
27612;SDS011;15036;48.094;-1.690;2022-10-22T03:05:16;24.77;;;4.30;;
27612;SDS011;15036;48.094;-1.690;2022-10-22T03:07:41;25.63;;;4.18;;
27612;SDS011;15036;48.094;-1.690;2022-10-22T03:10:07;19.45;;;4.65;;
27612;SDS011;15036;48.094;-1.690;2022-10-22T03:12:32;23.52;;;4.38;;
27612;SDS011;15036;48.094;-1.690;2022-10-22T03:14:58;18.85;;;4.55;;
27612;SDS011;15036;48.094;-1.690;2022-10-22T03:17:23;22.13;;;4.53;;
27612;SDS011;15036;48.094;-1.690;2022-10-22T03:19:49;20.13;;;4.50;;
27612;SDS011;15036;48.094;-1.690;2022-10-22T03:22:15;24.02;;;4.70;;
27612;SDS011;15036;48.094;-1.690;2022-10-22T03:24:44;19.52;;;3.88;;
27612;SDS011;15036;48.094;-1.690;2022-10-22T03:27:12;21.73;;;4.55;;
27612;SDS011;15036;48.094;-1.690;2022-10-22T03:29:40;27.65;;;4.85;;
27612;SDS011;15036;48.094;-1.690;2022-10-22T03:32:06;27.67;;;5.45;;
27612;SDS011;15036;48.094;-1.690;2022-10-22T03:34:32;23.98;;;4.72;;
27612;SDS011;15036;48.094;-1.690;2022-10-22T03:36:58;22.90;;;4.85;;
27612;SDS011;15036;48.094;-1.690;2022-10-22T03:39:25;21.83;;;4.50;;
27612;SDS011;15036;48.094;-1.690;2022-10-22T03:41:52;21.20;;;4.15;;
27612;SDS011;15036;48.094;-1.690;2022-10-22T03:44:18;24.90;;;5.28;;
27612;SDS011;15036;48.094;-1.690;2022-10-22T03:46:45;22.02;;;4.50;;
27612;SDS011;15036;48.094;-1.690;2022-10-22T03:49:10;26.63;;;4.95;;
27612;SDS011;15036;48.094;-1.690;2022-10-22T03:51:35;23.27;;;4.35;;
27612;SDS011;15036;48.094;-1.690;2022-10-22T03:54:01;21.23;;;4.43;;
27612;SDS011;15036;48.094;-1.690;2022-10-22T03:56:27;23.65;;;4.63;;
27612;SDS011;15036;48.094;-1.690;2022-10-22T03:58:54;25.80;;;4.75;;
27612;SDS011;15036;48.094;-1.690;2022-10-22T04:01:21;21.38;;;4.50;;
27612;SDS011;15036;48.094;-1.690;2022-10-22T04:03:47;22.85;;;4.80;;
27612;SDS011;15036;48.094;-1.690;2022-10-22T04:06:13;22.02;;;4.32;;
27612;SDS011;15036;48.094;-1.690;2022-10-22T04:08:39;25.48;;;4.32;;
27612;SDS011;15036;48.094;-1.690;2022-10-22T04:11:06;18.70;;;4.05;;
27612;SDS011;15036;48.094;-1.690;2022-10-22T04:13:31;22.50;;;4.15;;
27612;SDS011;15036;48.094;-1.690;2022-10-22T04:16:09;23.45;;;4.00;;
27612;SDS011;15036;48.094;-1.690;2022-10-22T04:18:35;22.13;;;3.92;;
27612;SDS011;15036;48.094;-1.690;2022-10-22T04:21:02;26.92;;;4.75;;
27612;SDS011;15036;48.094;-1.690;2022-10-22T04:23:28;22.52;;;4.35;;
27612;SDS011;15036;48.094;-1.690;2022-10-22T04:25:59;21.55;;;4.15;;
27612;SDS011;15036;48.094;-1.690;2022-10-22T04:28:26;20.33;;;4.47;;
27612;SDS011;15036;48.094;-1.690;2022-10-22T04:30:51;20.60;;;4.15;;
27612;SDS011;15036;48.094;-1.690;2022-10-22T04:33:17;22.73;;;4.50;;
27612;SDS011;15036;48.094;-1.690;2022-10-22T04:35:42;25.95;;;4.38;;
27612;SDS011;15036;48.094;-1.690;2022-10-22T04:38:08;26.05;;;4.50;;
27612;SDS011;15036;48.094;-1.690;2022-10-22T04:40:33;24.75;;;4.43;;
27612;SDS011;15036;48.094;-1.690;2022-10-22T04:42:59;22.10;;;4.22;;
27612;SDS011;15036;48.094;-1.690;2022-10-22T04:45:24;20.92;;;4.20;;
27612;SDS011;15036;48.094;-1.690;2022-10-22T04:47:49;21.83;;;3.75;;
27612;SDS011;15036;48.094;-1.690;2022-10-22T04:50:15;18.67;;;4.28;;
27612;SDS011;15036;48.094;-1.690;2022-10-22T04:52:40;16.88;;;4.40;;
27612;SDS011;15036;48.094;-1.690;2022-10-22T04:55:06;18.15;;;4.22;;
27612;SDS011;15036;48.094;-1.690;2022-10-22T04:57:31;19.25;;;4.07;;
27612;SDS011;15036;48.094;-1.690;2022-10-22T04:59:57;20.10;;;3.65;;
27612;SDS011;15036;48.094;-1.690;2022-10-22T05:02:22;17.95;;;3.80;;
27612;SDS011;15036;48.094;-1.690;2022-10-22T05:04:48;21.45;;;4.05;;
27612;SDS011;15036;48.094;-1.690;2022-10-22T05:07:13;21.45;;;3.70;;
27612;SDS011;15036;48.094;-1.690;2022-10-22T05:09:39;21.92;;;4.30;;
27612;SDS011;15036;48.094;-1.690;2022-10-22T05:12:04;16.73;;;3.90;;
27612;SDS011;15036;48.094;-1.690;2022-10-22T05:14:30;20.05;;;3.83;;
27612;SDS011;15036;48.094;-1.690;2022-10-22T05:16:56;20.67;;;4.35;;
27612;SDS011;15036;48.094;-1.690;2022-10-22T05:19:22;21.17;;;4.43;;
27612;SDS011;15036;48.094;-1.690;2022-10-22T05:21:53;22.63;;;4.32;;
27612;SDS011;15036;48.094;-1.690;2022-10-22T05:24:20;19.30;;;4.45;;
27612;SDS011;15036;48.094;-1.690;2022-10-22T05:26:47;25.88;;;4.38;;
27612;SDS011;15036;48.094;-1.690;2022-10-22T05:29:13;22.33;;;4.40;;
27612;SDS011;15036;48.094;-1.690;2022-10-22T05:31:39;24.60;;;4.30;;
27612;SDS011;15036;48.094;-1.690;2022-10-22T05:34:05;15.80;;;3.63;;
27612;SDS011;15036;48.094;-1.690;2022-10-22T05:36:30;24.92;;;4.55;;
27612;SDS011;15036;48.094;-1.690;2022-10-22T05:38:55;21.38;;;4.28;;
27612;SDS011;15036;48.094;-1.690;2022-10-22T05:41:22;19.23;;;3.78;;
27612;SDS011;15036;48.094;-1.690;2022-10-22T05:43:48;18.30;;;4.25;;
27612;SDS011;15036;48.094;-1.690;2022-10-22T05:46:16;21.05;;;4.25;;
27612;SDS011;15036;48.094;-1.690;2022-10-22T05:48:43;18.40;;;4.00;;
27612;SDS011;15036;48.094;-1.690;2022-10-22T05:51:10;18.00;;;3.90;;
27612;SDS011;15036;48.094;-1.690;2022-10-22T05:53:38;21.77;;;4.85;;
27612;SDS011;15036;48.094;-1.690;2022-10-22T05:56:06;25.77;;;4.90;;
27612;SDS011;15036;48.094;-1.690;2022-10-22T05:58:41;19.77;;;4.18;;
27612;SDS011;15036;48.094;-1.690;2022-10-22T06:01:12;24.20;;;4.60;;
27612;SDS011;15036;48.094;-1.690;2022-10-22T06:03:38;24.45;;;4.80;;
27612;SDS011;15036;48.094;-1.690;2022-10-22T06:06:11;25.08;;;4.55;;
27612;SDS011;15036;48.094;-1.690;2022-10-22T06:08:43;25.90;;;4.65;;
27612;SDS011;15036;48.094;-1.690;2022-10-22T06:11:09;21.25;;;5.40;;
27612;SDS011;15036;48.094;-1.690;2022-10-22T06:13:35;24.50;;;5.43;;
27612;SDS011;15036;48.094;-1.690;2022-10-22T06:16:00;27.65;;;5.32;;
27612;SDS011;15036;48.094;-1.690;2022-10-22T06:18:25;19.17;;;4.78;;
27612;SDS011;15036;48.094;-1.690;2022-10-22T06:20:51;26.88;;;4.82;;
27612;SDS011;15036;48.094;-1.690;2022-10-22T06:23:16;22.23;;;4.70;;
27612;SDS011;15036;48.094;-1.690;2022-10-22T06:25:41;23.85;;;4.50;;
27612;SDS011;15036;48.094;-1.690;2022-10-22T06:28:07;18.83;;;4.63;;
27612;SDS011;15036;48.094;-1.690;2022-10-22T06:30:33;25.05;;;4.88;;
27612;SDS011;15036;48.094;-1.690;2022-10-22T06:32:58;25.13;;;5.50;;
27612;SDS011;15036;48.094;-1.690;2022-10-22T06:35:24;20.73;;;4.88;;
27612;SDS011;15036;48.094;-1.690;2022-10-22T06:37:49;23.98;;;5.38;;
27612;SDS011;15036;48.094;-1.690;2022-10-22T06:40:15;20.17;;;5.18;;
27612;SDS011;15036;48.094;-1.690;2022-10-22T06:42:42;25.83;;;4.65;;
27612;SDS011;15036;48.094;-1.690;2022-10-22T06:45:08;23.42;;;5.65;;
27612;SDS011;15036;48.094;-1.690;2022-10-22T06:47:34;23.17;;;5.15;;
27612;SDS011;15036;48.094;-1.690;2022-10-22T06:49:59;19.60;;;5.30;;
27612;SDS011;15036;48.094;-1.690;2022-10-22T06:52:24;24.02;;;6.05;;
27612;SDS011;15036;48.094;-1.690;2022-10-22T06:54:50;26.38;;;6.82;;
27612;SDS011;15036;48.094;-1.690;2022-10-22T06:57:15;21.35;;;6.57;;
27612;SDS011;15036;48.094;-1.690;2022-10-22T06:59:40;24.52;;;6.97;;
27612;SDS011;15036;48.094;-1.690;2022-10-22T07:02:07;29.92;;;7.68;;
27612;SDS011;15036;48.094;-1.690;2022-10-22T07:04:33;22.85;;;6.78;;
27612;SDS011;15036;48.094;-1.690;2022-10-22T07:06:58;22.80;;;6.80;;
27612;SDS011;15036;48.094;-1.690;2022-10-22T07:09:24;27.90;;;7.60;;
27612;SDS011;15036;48.094;-1.690;2022-10-22T07:11:49;26.35;;;7.80;;
27612;SDS011;15036;48.094;-1.690;2022-10-22T07:14:14;24.25;;;7.43;;
27612;SDS011;15036;48.094;-1.690;2022-10-22T07:16:40;26.67;;;7.72;;
27612;SDS011;15036;48.094;-1.690;2022-10-22T07:19:07;29.00;;;8.55;;
27612;SDS011;15036;48.094;-1.690;2022-10-22T07:21:32;24.73;;;7.20;;
27612;SDS011;15036;48.094;-1.690;2022-10-22T07:23:57;26.58;;;7.15;;
27612;SDS011;15036;48.094;-1.690;2022-10-22T07:26:23;24.08;;;7.13;;
27612;SDS011;15036;48.094;-1.690;2022-10-22T07:28:49;24.58;;;7.00;;
27612;SDS011;15036;48.094;-1.690;2022-10-22T07:31:15;30.35;;;8.02;;
27612;SDS011;15036;48.094;-1.690;2022-10-22T07:33:42;30.35;;;7.60;;
27612;SDS011;15036;48.094;-1.690;2022-10-22T07:36:08;32.28;;;8.38;;
27612;SDS011;15036;48.094;-1.690;2022-10-22T07:38:36;32.03;;;8.10;;
27612;SDS011;15036;48.094;-1.690;2022-10-22T07:41:01;30.70;;;7.95;;
27612;SDS011;15036;48.094;-1.690;2022-10-22T07:43:28;34.08;;;8.65;;
27612;SDS011;15036;48.094;-1.690;2022-10-22T07:45:53;27.00;;;7.50;;
27612;SDS011;15036;48.094;-1.690;2022-10-22T07:48:21;34.80;;;8.55;;
27612;SDS011;15036;48.094;-1.690;2022-10-22T07:50:48;28.40;;;8.70;;
27612;SDS011;15036;48.094;-1.690;2022-10-22T07:53:14;27.48;;;8.15;;
27612;SDS011;15036;48.094;-1.690;2022-10-22T07:55:40;34.33;;;7.90;;
27612;SDS011;15036;48.094;-1.690;2022-10-22T07:58:06;31.77;;;8.85;;
27612;SDS011;15036;48.094;-1.690;2022-10-22T08:00:31;28.52;;;8.27;;
27612;SDS011;15036;48.094;-1.690;2022-10-22T08:02:57;30.27;;;7.68;;
27612;SDS011;15036;48.094;-1.690;2022-10-22T08:05:22;29.48;;;7.30;;
27612;SDS011;15036;48.094;-1.690;2022-10-22T08:07:47;31.10;;;8.20;;
27612;SDS011;15036;48.094;-1.690;2022-10-22T08:10:13;24.70;;;7.25;;
27612;SDS011;15036;48.094;-1.690;2022-10-22T08:12:38;29.42;;;8.18;;
27612;SDS011;15036;48.094;-1.690;2022-10-22T08:15:04;34.40;;;8.38;;
27612;SDS011;15036;48.094;-1.690;2022-10-22T08:17:30;29.73;;;7.85;;
27612;SDS011;15036;48.094;-1.690;2022-10-22T08:19:55;28.38;;;7.63;;
27612;SDS011;15036;48.094;-1.690;2022-10-22T08:22:21;31.77;;;8.27;;
27612;SDS011;15036;48.094;-1.690;2022-10-22T08:24:46;24.73;;;6.95;;
27612;SDS011;15036;48.094;-1.690;2022-10-22T08:27:11;28.40;;;7.47;;
27612;SDS011;15036;48.094;-1.690;2022-10-22T08:29:37;25.15;;;7.40;;
27612;SDS011;15036;48.094;-1.690;2022-10-22T08:32:02;29.42;;;8.13;;
27612;SDS011;15036;48.094;-1.690;2022-10-22T08:34:28;26.63;;;7.65;;
27612;SDS011;15036;48.094;-1.690;2022-10-22T08:36:54;24.70;;;7.93;;
27612;SDS011;15036;48.094;-1.690;2022-10-22T08:39:20;21.80;;;7.63;;
27612;SDS011;15036;48.094;-1.690;2022-10-22T08:49:56;21.17;;;7.15;;
27612;SDS011;15036;48.094;-1.690;2022-10-22T08:52:24;22.65;;;6.82;;
27612;SDS011;15036;48.094;-1.690;2022-10-22T09:03:01;21.40;;;6.72;;
27612;SDS011;15036;48.094;-1.690;2022-10-22T09:08:19;20.98;;;6.88;;
27612;SDS011;15036;48.094;-1.690;2022-10-22T09:10:49;17.52;;;6.30;;
27612;SDS011;15036;48.094;-1.690;2022-10-22T09:13:20;19.77;;;6.13;;
27612;SDS011;15036;48.094;-1.690;2022-10-22T09:16:00;28.95;;;7.32;;
27612;SDS011;15036;48.094;-1.690;2022-10-22T09:24:08;21.55;;;6.95;;
27612;SDS011;15036;48.094;-1.690;2022-10-22T09:26:38;16.80;;;6.05;;
27612;SDS011;15036;48.094;-1.690;2022-10-22T09:29:06;20.02;;;5.95;;
27612;SDS011;15036;48.094;-1.690;2022-10-22T09:31:33;18.27;;;6.15;;
27612;SDS011;15036;48.094;-1.690;2022-10-22T09:33:59;18.13;;;6.32;;
27612;SDS011;15036;48.094;-1.690;2022-10-22T09:36:30;17.10;;;5.63;;
27612;SDS011;15036;48.094;-1.690;2022-10-22T09:38:56;21.75;;;6.22;;
27612;SDS011;15036;48.094;-1.690;2022-10-22T09:41:26;18.63;;;5.90;;
27612;SDS011;15036;48.094;-1.690;2022-10-22T09:43:56;17.52;;;5.60;;
27612;SDS011;15036;48.094;-1.690;2022-10-22T09:46:25;13.82;;;5.22;;
27612;SDS011;15036;48.094;-1.690;2022-10-22T09:49:03;18.92;;;4.88;;
27612;SDS011;15036;48.094;-1.690;2022-10-22T09:51:56;20.13;;;5.32;;
27612;SDS011;15036;48.094;-1.690;2022-10-22T09:57:04;21.60;;;5.13;;
27612;SDS011;15036;48.094;-1.690;2022-10-22T09:59:37;18.58;;;5.55;;
27612;SDS011;15036;48.094;-1.690;2022-10-22T10:04:34;16.17;;;4.97;;
27612;SDS011;15036;48.094;-1.690;2022-10-22T10:07:13;17.73;;;4.35;;
27612;SDS011;15036;48.094;-1.690;2022-10-22T10:09:43;16.50;;;4.68;;
27612;SDS011;15036;48.094;-1.690;2022-10-22T10:12:23;15.25;;;3.90;;
27612;SDS011;15036;48.094;-1.690;2022-10-22T10:15:49;14.57;;;3.88;;
27612;SDS011;15036;48.094;-1.690;2022-10-22T10:21:09;13.85;;;3.58;;
27612;SDS011;15036;48.094;-1.690;2022-10-22T10:34:50;15.52;;;3.83;;
27612;SDS011;15036;48.094;-1.690;2022-10-22T10:37:21;14.75;;;3.55;;
27612;SDS011;15036;48.094;-1.690;2022-10-22T10:48:08;11.65;;;2.55;;
27612;SDS011;15036;48.094;-1.690;2022-10-22T10:55:52;13.70;;;2.95;;
27612;SDS011;15036;48.094;-1.690;2022-10-22T10:58:33;14.88;;;2.78;;
27612;SDS011;15036;48.094;-1.690;2022-10-22T11:06:34;12.52;;;2.90;;
27612;SDS011;15036;48.094;-1.690;2022-10-22T11:11:39;13.85;;;2.83;;
27612;SDS011;15036;48.094;-1.690;2022-10-22T11:14:13;12.48;;;2.83;;
27612;SDS011;15036;48.094;-1.690;2022-10-22T11:17:17;10.52;;;2.30;;
27612;SDS011;15036;48.094;-1.690;2022-10-22T11:30:02;9.60;;;2.75;;
27612;SDS011;15036;48.094;-1.690;2022-10-22T11:32:30;9.00;;;2.47;;
27612;SDS011;15036;48.094;-1.690;2022-10-22T11:34:58;6.97;;;2.20;;
27612;SDS011;15036;48.094;-1.690;2022-10-22T11:37:27;10.00;;;2.42;;
27612;SDS011;15036;48.094;-1.690;2022-10-22T11:42:54;12.18;;;2.65;;
27612;SDS011;15036;48.094;-1.690;2022-10-22T11:53:16;9.73;;;2.10;;
27612;SDS011;15036;48.094;-1.690;2022-10-22T11:55:47;8.77;;;2.55;;
27612;SDS011;15036;48.094;-1.690;2022-10-22T12:06:18;10.15;;;2.38;;
27612;SDS011;15036;48.094;-1.690;2022-10-22T12:11:13;8.60;;;2.63;;
27612;SDS011;15036;48.094;-1.690;2022-10-22T12:16:38;7.95;;;2.20;;
27612;SDS011;15036;48.094;-1.690;2022-10-22T12:19:23;7.03;;;2.00;;
27612;SDS011;15036;48.094;-1.690;2022-10-22T12:22:33;8.57;;;2.08;;
27612;SDS011;15036;48.094;-1.690;2022-10-22T12:24:40;9.45;;;1.98;;
27612;SDS011;15036;48.094;-1.690;2022-10-22T12:27:15;8.15;;;2.08;;
27612;SDS011;15036;48.094;-1.690;2022-10-22T12:29:44;6.35;;;2.00;;
27612;SDS011;15036;48.094;-1.690;2022-10-22T12:32:09;8.07;;;1.90;;
27612;SDS011;15036;48.094;-1.690;2022-10-22T12:34:43;8.20;;;1.95;;
27612;SDS011;15036;48.094;-1.690;2022-10-22T12:37:11;6.20;;;1.75;;
27612;SDS011;15036;48.094;-1.690;2022-10-22T12:39:38;7.20;;;1.80;;
27612;SDS011;15036;48.094;-1.690;2022-10-22T12:42:04;7.07;;;1.83;;
27612;SDS011;15036;48.094;-1.690;2022-10-22T12:44:34;8.30;;;1.95;;
27612;SDS011;15036;48.094;-1.690;2022-10-22T12:47:00;6.65;;;1.67;;
27612;SDS011;15036;48.094;-1.690;2022-10-22T12:49:35;9.27;;;1.75;;
27612;SDS011;15036;48.094;-1.690;2022-10-22T12:52:05;8.88;;;1.70;;
27612;SDS011;15036;48.094;-1.690;2022-10-22T12:54:36;7.32;;;1.65;;
27612;SDS011;15036;48.094;-1.690;2022-10-22T12:57:03;8.18;;;2.00;;
27612;SDS011;15036;48.094;-1.690;2022-10-22T12:59:32;10.55;;;1.98;;
27612;SDS011;15036;48.094;-1.690;2022-10-22T13:02:00;7.55;;;1.90;;
27612;SDS011;15036;48.094;-1.690;2022-10-22T13:04:34;8.13;;;2.03;;
27612;SDS011;15036;48.094;-1.690;2022-10-22T13:07:05;6.10;;;1.73;;
27612;SDS011;15036;48.094;-1.690;2022-10-22T13:09:45;6.50;;;1.90;;
27612;SDS011;15036;48.094;-1.690;2022-10-22T13:12:34;7.22;;;2.00;;
27612;SDS011;15036;48.094;-1.690;2022-10-22T13:20:53;8.23;;;2.05;;
27612;SDS011;15036;48.094;-1.690;2022-10-22T13:23:25;8.98;;;1.85;;
27612;SDS011;15036;48.094;-1.690;2022-10-22T13:26:02;7.00;;;1.85;;
27612;SDS011;15036;48.094;-1.690;2022-10-22T13:28:38;6.40;;;1.95;;
27612;SDS011;15036;48.094;-1.690;2022-10-22T13:31:10;7.45;;;2.03;;
27612;SDS011;15036;48.094;-1.690;2022-10-22T13:33:40;7.55;;;1.98;;
27612;SDS011;15036;48.094;-1.690;2022-10-22T13:36:13;7.32;;;1.70;;
27612;SDS011;15036;48.094;-1.690;2022-10-22T13:38:39;5.45;;;1.67;;
27612;SDS011;15036;48.094;-1.690;2022-10-22T13:44:03;6.57;;;1.90;;
27612;SDS011;15036;48.094;-1.690;2022-10-22T13:46:28;5.57;;;2.00;;
27612;SDS011;15036;48.094;-1.690;2022-10-22T13:48:55;5.97;;;1.75;;
27612;SDS011;15036;48.094;-1.690;2022-10-22T13:51:23;7.25;;;1.88;;
27612;SDS011;15036;48.094;-1.690;2022-10-22T13:53:55;7.13;;;1.80;;
27612;SDS011;15036;48.094;-1.690;2022-10-22T13:56:22;6.78;;;1.98;;
27612;SDS011;15036;48.094;-1.690;2022-10-22T13:58:48;6.35;;;1.67;;
27612;SDS011;15036;48.094;-1.690;2022-10-22T14:01:19;8.10;;;1.75;;
27612;SDS011;15036;48.094;-1.690;2022-10-22T14:03:46;6.88;;;1.85;;
27612;SDS011;15036;48.094;-1.690;2022-10-22T14:06:14;6.63;;;1.80;;
27612;SDS011;15036;48.094;-1.690;2022-10-22T14:08:41;5.90;;;1.65;;
27612;SDS011;15036;48.094;-1.690;2022-10-22T14:11:12;7.43;;;1.65;;
27612;SDS011;15036;48.094;-1.690;2022-10-22T14:13:37;4.38;;;1.48;;
27612;SDS011;15036;48.094;-1.690;2022-10-22T14:16:03;6.35;;;1.63;;
27612;SDS011;15036;48.094;-1.690;2022-10-22T14:18:30;9.75;;;1.95;;
27612;SDS011;15036;48.094;-1.690;2022-10-22T14:20:58;9.30;;;2.17;;
27612;SDS011;15036;48.094;-1.690;2022-10-22T14:23:26;6.47;;;1.90;;
27612;SDS011;15036;48.094;-1.690;2022-10-22T14:25:53;5.55;;;1.70;;
27612;SDS011;15036;48.094;-1.690;2022-10-22T14:28:20;4.85;;;1.50;;
27612;SDS011;15036;48.094;-1.690;2022-10-22T14:30:45;6.85;;;1.48;;
27612;SDS011;15036;48.094;-1.690;2022-10-22T14:35:42;5.75;;;1.80;;
27612;SDS011;15036;48.094;-1.690;2022-10-22T14:38:08;6.82;;;1.83;;
27612;SDS011;15036;48.094;-1.690;2022-10-22T14:40:33;8.15;;;1.98;;
27612;SDS011;15036;48.094;-1.690;2022-10-22T14:42:59;7.65;;;1.83;;
27612;SDS011;15036;48.094;-1.690;2022-10-22T14:45:25;6.05;;;1.73;;
27612;SDS011;15036;48.094;-1.690;2022-10-22T14:47:51;7.22;;;2.13;;
27612;SDS011;15036;48.094;-1.690;2022-10-22T14:50:21;7.30;;;2.55;;
27612;SDS011;15036;48.094;-1.690;2022-10-22T14:52:48;8.18;;;2.63;;
27612;SDS011;15036;48.094;-1.690;2022-10-22T14:55:14;9.38;;;2.97;;
27612;SDS011;15036;48.094;-1.690;2022-10-22T14:57:41;6.63;;;2.55;;
27612;SDS011;15036;48.094;-1.690;2022-10-22T15:00:08;6.72;;;2.53;;
27612;SDS011;15036;48.094;-1.690;2022-10-22T15:02:36;8.05;;;2.22;;
27612;SDS011;15036;48.094;-1.690;2022-10-22T15:05:01;11.35;;;2.85;;
27612;SDS011;15036;48.094;-1.690;2022-10-22T15:07:27;8.25;;;2.67;;
27612;SDS011;15036;48.094;-1.690;2022-10-22T15:09:52;6.40;;;2.22;;
27612;SDS011;15036;48.094;-1.690;2022-10-22T15:12:18;7.80;;;2.20;;
27612;SDS011;15036;48.094;-1.690;2022-10-22T15:14:46;7.25;;;2.38;;
27612;SDS011;15036;48.094;-1.690;2022-10-22T15:17:12;8.77;;;2.17;;
27612;SDS011;15036;48.094;-1.690;2022-10-22T15:19:38;5.70;;;1.88;;
27612;SDS011;15036;48.094;-1.690;2022-10-22T15:22:04;6.20;;;1.98;;
27612;SDS011;15036;48.094;-1.690;2022-10-22T15:24:30;9.50;;;2.08;;
27612;SDS011;15036;48.094;-1.690;2022-10-22T15:26:56;6.07;;;2.10;;
27612;SDS011;15036;48.094;-1.690;2022-10-22T15:29:21;7.28;;;2.17;;
27612;SDS011;15036;48.094;-1.690;2022-10-22T15:31:48;6.93;;;2.10;;
27612;SDS011;15036;48.094;-1.690;2022-10-22T15:34:19;6.30;;;2.15;;
27612;SDS011;15036;48.094;-1.690;2022-10-22T15:36:48;5.40;;;1.55;;
27612;SDS011;15036;48.094;-1.690;2022-10-22T15:39:13;6.22;;;2.10;;
27612;SDS011;15036;48.094;-1.690;2022-10-22T15:41:39;9.15;;;2.30;;
27612;SDS011;15036;48.094;-1.690;2022-10-22T15:44:05;5.85;;;2.00;;
27612;SDS011;15036;48.094;-1.690;2022-10-22T15:46:31;8.30;;;2.38;;
27612;SDS011;15036;48.094;-1.690;2022-10-22T15:48:57;9.63;;;2.40;;
27612;SDS011;15036;48.094;-1.690;2022-10-22T15:51:22;7.75;;;2.20;;
27612;SDS011;15036;48.094;-1.690;2022-10-22T15:53:51;10.05;;;2.40;;
27612;SDS011;15036;48.094;-1.690;2022-10-22T15:56:19;7.22;;;2.33;;
27612;SDS011;15036;48.094;-1.690;2022-10-22T15:58:45;9.05;;;2.60;;
27612;SDS011;15036;48.094;-1.690;2022-10-22T16:01:11;6.68;;;2.60;;
27612;SDS011;15036;48.094;-1.690;2022-10-22T16:03:38;10.95;;;2.55;;
27612;SDS011;15036;48.094;-1.690;2022-10-22T16:06:04;8.18;;;2.83;;
27612;SDS011;15036;48.094;-1.690;2022-10-22T16:08:31;8.68;;;2.50;;
27612;SDS011;15036;48.094;-1.690;2022-10-22T16:10:56;7.80;;;2.67;;
27612;SDS011;15036;48.094;-1.690;2022-10-22T16:13:22;7.97;;;2.50;;
27612;SDS011;15036;48.094;-1.690;2022-10-22T16:15:49;8.70;;;2.60;;
27612;SDS011;15036;48.094;-1.690;2022-10-22T16:18:15;10.65;;;2.42;;
27612;SDS011;15036;48.094;-1.690;2022-10-22T16:20:41;6.45;;;2.47;;
27612;SDS011;15036;48.094;-1.690;2022-10-22T16:23:07;8.35;;;2.80;;
27612;SDS011;15036;48.094;-1.690;2022-10-22T16:25:39;8.20;;;2.50;;
27612;SDS011;15036;48.094;-1.690;2022-10-22T16:28:05;7.50;;;2.55;;
27612;SDS011;15036;48.094;-1.690;2022-10-22T16:30:31;7.40;;;2.63;;
27612;SDS011;15036;48.094;-1.690;2022-10-22T16:32:58;6.65;;;2.72;;
27612;SDS011;15036;48.094;-1.690;2022-10-22T16:35:24;9.88;;;2.92;;
27612;SDS011;15036;48.094;-1.690;2022-10-22T16:37:49;10.90;;;3.22;;
27612;SDS011;15036;48.094;-1.690;2022-10-22T16:40:14;10.23;;;2.80;;
27612;SDS011;15036;48.094;-1.690;2022-10-22T16:42:40;9.00;;;2.90;;
27612;SDS011;15036;48.094;-1.690;2022-10-22T16:45:06;6.50;;;2.53;;
27612;SDS011;15036;48.094;-1.690;2022-10-22T16:47:31;7.60;;;2.53;;
27612;SDS011;15036;48.094;-1.690;2022-10-22T16:49:57;7.68;;;2.47;;
27612;SDS011;15036;48.094;-1.690;2022-10-22T16:52:24;5.50;;;2.17;;